createdAt,value
2023-02-15T00:00:13.931Z,25.70
2023-02-15T00:03:01.768Z,24.60
2023-02-15T00:05:31.940Z,24.20
2023-02-15T00:07:59.815Z,23.80
2023-02-15T00:10:27.735Z,20.90
2023-02-15T00:12:55.593Z,22.90
2023-02-15T00:15:23.502Z,21.60
2023-02-15T00:17:51.483Z,23.70
2023-02-15T00:20:20.061Z,22.90
2023-02-15T00:22:47.812Z,27.30
2023-02-15T00:25:15.794Z,28.20
2023-02-15T00:27:43.846Z,24.70
2023-02-15T00:30:12.423Z,26.60
2023-02-15T00:32:40.296Z,26.60
2023-02-15T00:35:08.480Z,26.60
2023-02-15T00:37:36.539Z,28.70
2023-02-15T00:40:07.663Z,29.10
2023-02-15T00:42:36.363Z,27.30
2023-02-15T00:45:04.754Z,27.80
2023-02-15T00:47:32.924Z,28.10
2023-02-15T00:50:00.787Z,31.50
2023-02-15T00:52:28.860Z,29.80
2023-02-15T00:54:56.990Z,28.90
2023-02-15T00:57:24.826Z,27.60
2023-02-15T00:59:52.694Z,27.60
2023-02-15T01:02:20.628Z,26.90
2023-02-15T01:04:48.699Z,20.90
2023-02-15T01:07:17.020Z,23.30
2023-02-15T01:09:44.865Z,25.70
2023-02-15T01:12:12.713Z,25.60
2023-02-15T01:14:40.576Z,25.30
2023-02-15T01:17:08.312Z,22.90
2023-02-15T01:19:36.302Z,24.30
2023-02-15T01:22:04.682Z,28.30
2023-02-15T01:24:32.928Z,25.70
2023-02-15T01:27:00.824Z,25.10
2023-02-15T01:29:28.689Z,26.10
2023-02-15T01:31:56.625Z,27.10
2023-02-15T01:34:24.725Z,24.90
2023-02-15T01:36:52.548Z,25.20
2023-02-15T01:39:20.348Z,28.40
2023-02-15T01:41:48.207Z,27.30
2023-02-15T01:44:35.155Z,28.10
2023-02-15T01:47:03.090Z,31.00
2023-02-15T01:49:30.922Z,30.40
2023-02-15T01:51:58.730Z,38.50
2023-02-15T01:54:32.556Z,30.60
2023-02-15T01:57:04.882Z,32.50
2023-02-15T01:59:33.508Z,33.10
2023-02-15T02:02:02.097Z,30.50
2023-02-15T02:04:36.492Z,31.40
2023-02-15T02:07:05.529Z,33.20
2023-02-15T02:09:33.446Z,30.90
2023-02-15T02:12:02.286Z,34.80
2023-02-15T02:14:30.508Z,30.60
2023-02-15T02:17:02.370Z,34.50
2023-02-15T02:19:30.132Z,32.00
2023-02-15T02:22:16.949Z,34.00
2023-02-15T02:27:15.284Z,29.60
2023-02-15T02:29:58.282Z,32.40
2023-02-15T02:32:29.298Z,34.40
2023-02-15T02:34:57.172Z,34.10
2023-02-15T02:37:29.214Z,34.00
2023-02-15T02:40:23.505Z,35.90
2023-02-15T02:42:57.415Z,35.90
2023-02-15T02:45:42.129Z,40.80
2023-02-15T02:48:13.538Z,44.20
2023-02-15T02:50:42.213Z,39.40
2023-02-15T02:53:10.207Z,40.70
2023-02-15T02:55:41.016Z,41.30
2023-02-15T02:58:08.756Z,41.60
2023-02-15T03:00:40.220Z,41.70
2023-02-15T03:03:11.991Z,39.40
2023-02-15T03:05:42.790Z,40.30
2023-02-15T03:08:12.018Z,37.60
2023-02-15T03:10:41.005Z,37.70
2023-02-15T03:13:09.647Z,38.70
2023-02-15T03:16:01.383Z,35.70
2023-02-15T03:18:32.397Z,36.90
2023-02-15T03:21:01.735Z,37.50
2023-02-15T03:23:30.921Z,34.50
2023-02-15T03:26:04.392Z,38.20
2023-02-15T03:28:37.600Z,38.70
2023-02-15T03:31:06.621Z,41.80
2023-02-15T03:33:36.962Z,33.30
2023-02-15T03:36:07.901Z,36.60
2023-02-15T03:38:44.368Z,34.90
2023-02-15T03:41:13.552Z,33.10
2023-02-15T03:43:53.127Z,39.10
2023-02-15T03:46:28.797Z,35.20
2023-02-15T03:49:00.116Z,34.90
2023-02-15T03:51:37.390Z,35.70
2023-02-15T03:54:13.759Z,33.10
2023-02-15T03:56:42.542Z,40.20
2023-02-15T03:59:29.225Z,35.50
2023-02-15T04:02:07.658Z,35.80
2023-02-15T04:04:37.074Z,37.30
2023-02-15T04:07:06.444Z,35.30
2023-02-15T04:09:52.963Z,34.70
2023-02-15T04:12:21.345Z,34.50
2023-02-15T04:15:08.116Z,38.20
2023-02-15T04:17:37.238Z,34.30
2023-02-15T04:20:24.704Z,33.80
2023-02-15T04:23:11.212Z,36.70
2023-02-15T04:25:39.084Z,33.50
2023-02-15T04:28:08.739Z,33.10
2023-02-15T04:30:36.711Z,37.20
2023-02-15T04:33:04.582Z,36.80
2023-02-15T04:35:34.433Z,34.80
2023-02-15T04:38:02.137Z,37.80
2023-02-15T04:40:30.031Z,35.80
2023-02-15T04:42:57.777Z,35.50
2023-02-15T04:45:25.757Z,34.80
2023-02-15T04:47:53.956Z,35.30
2023-02-15T04:50:21.803Z,31.10
2023-02-15T04:52:49.767Z,37.20
2023-02-15T04:55:17.705Z,37.80
2023-02-15T04:57:46.920Z,36.30
2023-02-15T05:00:14.981Z,33.80
2023-02-15T05:02:42.702Z,35.60
2023-02-15T05:05:14.035Z,37.50
2023-02-15T05:07:42.374Z,34.30
2023-02-15T05:10:10.649Z,35.60
2023-02-15T05:12:38.526Z,39.70
2023-02-15T05:15:06.791Z,34.20
2023-02-15T05:17:34.901Z,34.10
2023-02-15T05:20:02.932Z,34.30
2023-02-15T05:22:31.030Z,38.30
2023-02-15T05:25:17.812Z,34.10
2023-02-15T05:28:05.289Z,34.60
2023-02-15T05:30:33.710Z,35.10
2023-02-15T05:33:01.574Z,36.50
2023-02-15T05:35:29.256Z,33.60
2023-02-15T05:37:57.194Z,32.60
2023-02-15T05:40:24.935Z,33.00
2023-02-15T05:42:52.772Z,32.20
2023-02-15T05:45:21.018Z,34.60
2023-02-15T05:47:48.934Z,28.90
2023-02-15T05:50:16.956Z,35.50
2023-02-15T05:52:44.718Z,32.90
2023-02-15T05:55:13.278Z,32.50
2023-02-15T05:57:41.149Z,32.20
2023-02-15T06:00:10.962Z,34.10
2023-02-15T06:02:39.753Z,35.50
2023-02-15T06:05:08.355Z,32.10
2023-02-15T06:07:36.218Z,31.90
2023-02-15T06:10:05.070Z,35.10
2023-02-15T06:12:32.924Z,33.10
2023-02-15T06:15:00.853Z,31.00
2023-02-15T06:17:28.800Z,34.40
2023-02-15T06:19:56.782Z,34.60
2023-02-15T06:22:24.947Z,37.10
2023-02-15T06:24:52.827Z,37.60
2023-02-15T06:27:20.655Z,34.20
2023-02-15T06:29:48.543Z,33.90
2023-02-15T06:32:17.241Z,33.60
2023-02-15T06:34:46.310Z,33.80
2023-02-15T06:37:15.056Z,34.90
2023-02-15T06:39:44.054Z,32.70
2023-02-15T06:42:12.177Z,34.40
2023-02-15T06:44:40.183Z,39.20
2023-02-15T06:47:07.972Z,35.40
2023-02-15T06:49:35.974Z,35.10
2023-02-15T06:52:04.579Z,31.40
2023-02-15T06:54:32.529Z,37.30
2023-02-15T06:57:00.254Z,36.70
2023-02-15T06:59:28.364Z,35.60
2023-02-15T07:01:56.289Z,38.80
2023-02-15T07:04:24.365Z,38.40
2023-02-15T07:06:54.135Z,38.20
2023-02-15T07:09:22.897Z,34.40
2023-02-15T07:12:09.699Z,36.70
2023-02-15T07:17:11.678Z,38.10
2023-02-15T07:19:42.756Z,42.40
2023-02-15T07:22:11.403Z,47.80
2023-02-15T07:24:39.268Z,44.50
2023-02-15T07:27:12.814Z,43.40
2023-02-15T07:29:41.865Z,44.00
2023-02-15T07:32:09.718Z,45.10
2023-02-15T07:34:37.755Z,41.60
2023-02-15T07:37:05.574Z,39.90
2023-02-15T07:39:33.356Z,40.40
2023-02-15T07:42:01.594Z,42.70
2023-02-15T07:44:29.473Z,40.20
2023-02-15T07:46:57.698Z,39.90
2023-02-15T07:49:25.706Z,51.00
2023-02-15T07:51:53.677Z,46.10
2023-02-15T07:54:21.648Z,43.50
2023-02-15T07:56:49.711Z,38.90
2023-02-15T07:59:17.866Z,43.00
2023-02-15T08:01:45.984Z,45.70
2023-02-15T08:04:14.130Z,44.70
2023-02-15T08:06:41.957Z,47.00
2023-02-15T08:09:10.675Z,41.90
2023-02-15T08:11:40.847Z,42.00
2023-02-15T08:14:10.207Z,43.80
2023-02-15T08:16:39.331Z,44.80
2023-02-15T08:19:11.064Z,46.70
2023-02-15T08:21:40.662Z,49.90
2023-02-15T08:24:09.451Z,46.60
2023-02-15T08:26:38.329Z,52.30
2023-02-15T08:29:07.842Z,42.50
2023-02-15T08:31:36.615Z,39.40
2023-02-15T08:34:05.178Z,42.40
2023-02-15T08:36:33.824Z,44.60
2023-02-15T08:39:02.891Z,40.80
2023-02-15T08:41:33.219Z,43.30
2023-02-15T08:44:02.415Z,43.40
2023-02-15T08:46:31.260Z,40.70
2023-02-15T08:48:59.399Z,43.10
2023-02-15T08:51:35.066Z,43.80
2023-02-15T08:54:04.624Z,42.20
2023-02-15T08:56:36.738Z,42.20
2023-02-15T08:59:05.693Z,42.60
2023-02-15T09:01:34.951Z,43.70
2023-02-15T09:04:11.164Z,45.30
2023-02-15T09:06:39.728Z,40.40
2023-02-15T09:09:08.577Z,43.20
2023-02-15T09:11:40.784Z,40.60
2023-02-15T09:14:10.588Z,36.80
2023-02-15T09:16:39.312Z,40.40
2023-02-15T09:19:08.667Z,39.30
2023-02-15T09:21:37.572Z,39.80
2023-02-15T09:24:07.697Z,44.00
2023-02-15T09:26:36.894Z,41.00
2023-02-15T09:29:05.057Z,40.20
2023-02-15T09:31:40.952Z,38.40
2023-02-15T09:34:09.092Z,41.60
2023-02-15T09:36:38.885Z,41.40
2023-02-15T09:39:13.528Z,39.40
2023-02-15T09:41:56.859Z,36.80
2023-02-15T09:44:30.912Z,42.00
2023-02-15T09:47:11.416Z,41.20
2023-02-15T09:49:58.222Z,46.70
2023-02-15T09:52:35.407Z,38.50
2023-02-15T09:57:37.184Z,37.10
2023-02-15T10:00:11.560Z,36.90
2023-02-15T10:02:57.904Z,38.30
2023-02-15T10:05:49.082Z,38.60
2023-02-15T10:08:20.162Z,35.40
2023-02-15T10:11:36.664Z,34.90
2023-02-15T10:14:14.254Z,39.80
2023-02-15T10:17:04.653Z,38.00
2023-02-15T10:19:44.741Z,37.80
2023-02-15T10:22:32.213Z,37.20
2023-02-15T10:25:08.301Z,36.10
2023-02-15T10:27:38.608Z,38.10
2023-02-15T10:30:11.993Z,38.50
2023-02-15T10:32:52.670Z,42.60
2023-02-15T10:35:24.512Z,39.60
2023-02-15T10:38:01.731Z,37.80
2023-02-15T10:40:34.407Z,38.70
2023-02-15T10:43:07.908Z,35.90
2023-02-15T10:45:40.477Z,40.20
2023-02-15T10:48:36.602Z,38.60
2023-02-15T10:51:06.359Z,39.20
2023-02-15T10:53:40.351Z,37.90
2023-02-15T10:56:13.411Z,36.60
2023-02-15T10:58:50.713Z,37.50
2023-02-15T11:01:22.520Z,36.20
2023-02-15T11:04:02.701Z,34.90
2023-02-15T11:06:31.720Z,34.30
2023-02-15T11:09:05.594Z,36.60
2023-02-15T11:11:36.076Z,33.20
2023-02-15T11:14:07.085Z,35.70
2023-02-15T11:16:40.599Z,36.50
2023-02-15T11:19:14.513Z,36.20
2023-02-15T11:21:48.064Z,37.60
2023-02-15T11:24:19.425Z,35.30
2023-02-15T11:26:50.583Z,33.00
2023-02-15T11:29:18.447Z,34.00
2023-02-15T11:31:47.973Z,33.70
2023-02-15T11:34:30.593Z,34.40
2023-02-15T11:37:02.574Z,35.80
2023-02-15T11:39:32.823Z,37.30
2023-02-15T11:42:03.587Z,36.40
2023-02-15T11:44:33.775Z,36.30
2023-02-15T11:47:02.667Z,33.80
2023-02-15T11:49:32.243Z,35.00
2023-02-15T11:52:06.386Z,36.70
2023-02-15T11:54:38.674Z,34.70
2023-02-15T11:57:16.608Z,36.30
2023-02-15T11:59:50.258Z,36.20
2023-02-15T12:02:19.910Z,36.10
2023-02-15T12:05:17.830Z,33.80
2023-02-15T12:08:08.494Z,35.70
2023-02-15T12:10:39.056Z,31.80
2023-02-15T12:13:17.646Z,33.90
2023-02-15T12:15:47.790Z,33.70
2023-02-15T12:18:38.886Z,33.50
2023-02-15T12:21:08.881Z,33.90
2023-02-15T12:23:42.024Z,33.90
2023-02-15T12:26:10.185Z,33.40
2023-02-15T12:28:41.198Z,33.00
2023-02-15T12:31:20.322Z,34.40
2023-02-15T12:33:48.861Z,62.10
2023-02-15T12:36:19.399Z,33.30
2023-02-15T12:39:08.425Z,35.60
2023-02-15T12:41:38.098Z,38.20
2023-02-15T12:44:17.879Z,36.80
2023-02-15T12:46:59.951Z,33.50
2023-02-15T12:49:32.822Z,33.00
2023-02-15T12:52:02.159Z,32.80
2023-02-15T12:54:30.129Z,32.20
2023-02-15T12:56:58.919Z,34.10
2023-02-15T12:59:27.170Z,34.30
2023-02-15T13:01:55.880Z,31.90
2023-02-15T13:04:27.255Z,33.40
2023-02-15T13:07:00.115Z,30.50
2023-02-15T13:09:32.181Z,33.90
2023-02-15T13:12:18.767Z,30.90
2023-02-15T13:14:47.816Z,32.70
2023-02-15T13:17:18.490Z,30.40
2023-02-15T13:19:52.861Z,35.10
2023-02-15T13:22:23.869Z,32.30
2023-02-15T13:24:54.509Z,30.20
2023-02-15T13:27:24.987Z,31.60
2023-02-15T13:29:54.677Z,28.80
2023-02-15T13:32:26.545Z,32.20
2023-02-15T13:34:59.487Z,33.70
2023-02-15T13:37:27.440Z,31.90
2023-02-15T13:39:59.302Z,29.20
2023-02-15T13:42:27.885Z,58.60
2023-02-15T13:45:04.255Z,39.10
2023-02-15T13:47:55.338Z,35.60
2023-02-15T13:50:35.717Z,35.70
2023-02-15T13:53:03.901Z,35.50
2023-02-15T13:55:38.725Z,32.40
2023-02-15T13:58:30.112Z,34.60
2023-02-15T14:01:18.404Z,36.10
2023-02-15T14:03:55.933Z,34.80
2023-02-15T14:06:30.674Z,33.60
2023-02-15T14:09:05.594Z,36.00
2023-02-15T14:11:36.591Z,38.80
2023-02-15T14:14:10.680Z,36.20
2023-02-15T14:17:00.826Z,34.60
2023-02-15T14:19:46.881Z,34.10
2023-02-15T14:22:14.732Z,32.60
2023-02-15T14:24:44.555Z,33.70
2023-02-15T14:27:35.914Z,38.20
2023-02-15T14:30:11.844Z,36.00
2023-02-15T14:32:42.335Z,39.40
2023-02-15T14:35:14.745Z,40.50
2023-02-15T14:37:51.782Z,41.20
2023-02-15T14:43:12.813Z,36.40
2023-02-15T14:46:04.058Z,38.20
2023-02-15T14:48:34.653Z,39.80
2023-02-15T14:51:03.023Z,41.20
2023-02-15T14:53:32.042Z,41.30
2023-02-15T14:56:20.822Z,38.60
2023-02-15T14:58:53.487Z,39.80
2023-02-15T15:01:29.961Z,41.10
2023-02-15T15:04:00.578Z,42.70
2023-02-15T15:06:33.047Z,43.60
2023-02-15T15:09:10.829Z,40.20
2023-02-15T15:11:43.948Z,37.90
2023-02-15T15:14:34.088Z,42.70
2023-02-15T15:17:05.898Z,42.60
2023-02-15T15:19:53.702Z,43.20
2023-02-15T15:22:22.985Z,40.30
2023-02-15T15:24:52.396Z,40.50
2023-02-15T15:27:44.332Z,42.60
2023-02-15T15:30:15.931Z,42.60
2023-02-15T15:32:44.566Z,47.20
2023-02-15T15:35:28.028Z,51.30
2023-02-15T15:38:15.120Z,49.80
2023-02-15T15:40:56.253Z,41.70
2023-02-15T15:43:37.302Z,41.20
2023-02-15T15:46:25.737Z,41.40
2023-02-15T15:48:54.357Z,43.80
2023-02-15T15:51:27.542Z,41.30
2023-02-15T15:53:56.095Z,42.90
2023-02-15T15:56:32.662Z,47.20
2023-02-15T16:01:31.159Z,38.10
2023-02-15T16:04:01.173Z,42.70
2023-02-15T16:06:29.215Z,39.80
2023-02-15T16:08:57.390Z,42.00
2023-02-15T16:11:26.369Z,41.90
2023-02-15T16:13:54.868Z,40.70
2023-02-15T16:16:29.242Z,45.00
2023-02-15T16:18:59.199Z,51.20
2023-02-15T16:21:33.084Z,46.20
2023-02-15T16:24:08.696Z,45.00
2023-02-15T16:26:55.668Z,38.90
2023-02-15T16:29:29.669Z,44.00
2023-02-15T16:32:16.146Z,50.60
2023-02-15T16:34:54.693Z,46.40
2023-02-15T16:37:24.636Z,52.70
2023-02-15T16:39:52.675Z,50.50
2023-02-15T16:42:20.849Z,50.50
2023-02-15T16:45:09.234Z,43.20
2023-02-15T16:47:41.467Z,47.50
2023-02-15T16:50:18.752Z,44.90
2023-02-15T16:55:25.639Z,49.10
2023-02-15T16:57:57.680Z,49.70
2023-02-15T17:00:31.880Z,42.00
2023-02-15T17:03:07.407Z,43.10
2023-02-15T17:05:43.851Z,42.90
2023-02-15T17:08:19.771Z,43.10
2023-02-15T17:11:00.222Z,44.80
2023-02-15T17:13:29.142Z,45.70
2023-02-15T17:16:03.329Z,43.90
2023-02-15T17:18:33.364Z,42.90
2023-02-15T17:21:11.094Z,47.80
2023-02-15T17:23:44.752Z,68.20
2023-02-15T17:26:16.680Z,65.90
2023-02-15T17:28:49.463Z,59.00
2023-02-15T17:31:18.999Z,54.80
2023-02-15T17:33:48.210Z,65.60
2023-02-15T17:36:23.709Z,62.00
2023-02-15T17:38:57.868Z,61.30
2023-02-15T17:41:35.559Z,57.90
2023-02-15T17:44:04.253Z,55.40
2023-02-15T17:46:37.438Z,55.80
2023-02-15T17:49:06.023Z,53.10
2023-02-15T17:51:36.079Z,52.00
2023-02-15T17:54:23.043Z,52.00
2023-02-15T17:59:19.093Z,45.70
2023-02-15T18:02:07.542Z,48.20
2023-02-15T18:04:55.691Z,52.10
2023-02-15T18:07:42.392Z,50.70
2023-02-15T18:10:34.222Z,46.70
2023-02-15T18:13:03.184Z,43.90
2023-02-15T18:15:31.389Z,49.30
2023-02-15T18:17:59.311Z,50.00
2023-02-15T18:20:37.175Z,48.30
2023-02-15T18:23:06.043Z,50.50
2023-02-15T18:25:34.028Z,53.70
2023-02-15T18:28:06.588Z,51.40
2023-02-15T18:30:41.542Z,47.80
2023-02-15T18:33:17.760Z,56.60
2023-02-15T18:35:49.292Z,53.30
2023-02-15T18:38:17.397Z,46.80
2023-02-15T18:40:46.198Z,44.70
2023-02-15T18:43:18.768Z,47.40
2023-02-15T18:45:47.885Z,49.60
2023-02-15T18:48:17.868Z,52.30
2023-02-15T18:50:47.101Z,60.60
2023-02-15T18:53:19.454Z,56.60
2023-02-15T18:55:50.052Z,56.70
2023-02-15T18:58:19.883Z,53.80
2023-02-15T19:00:50.981Z,54.10
2023-02-15T19:03:19.728Z,56.90
2023-02-15T19:05:48.709Z,57.60
2023-02-15T19:08:25.071Z,60.80
2023-02-15T19:10:53.853Z,54.00
2023-02-15T19:13:22.147Z,52.00
2023-02-15T19:15:51.885Z,56.60
2023-02-15T19:18:20.130Z,54.70
2023-02-15T19:20:48.826Z,57.50
2023-02-15T19:23:19.854Z,53.20
2023-02-15T19:25:50.932Z,51.60
2023-02-15T19:28:25.108Z,57.60
2023-02-15T19:30:53.820Z,51.60
2023-02-15T19:33:25.099Z,52.80
2023-02-15T19:35:58.018Z,49.80
2023-02-15T19:38:32.047Z,50.60
2023-02-15T19:41:11.070Z,49.60
2023-02-15T19:43:39.735Z,49.50
2023-02-15T19:46:12.414Z,55.20
2023-02-15T19:48:40.889Z,52.30
2023-02-15T19:51:09.368Z,65.50
2023-02-15T19:53:38.365Z,58.10
2023-02-15T19:56:16.034Z,60.20
2023-02-15T19:58:45.783Z,99.20
2023-02-15T20:01:15.248Z,101.60
2023-02-15T20:03:44.745Z,84.30
2023-02-15T20:06:16.639Z,86.20
2023-02-15T20:08:45.503Z,75.20
2023-02-15T20:11:15.092Z,86.20
2023-02-15T20:13:44.027Z,69.70
2023-02-15T20:16:12.841Z,80.10
2023-02-15T20:18:45.385Z,60.30
2023-02-15T20:21:16.629Z,49.20
2023-02-15T20:23:47.274Z,52.50
2023-02-15T20:26:18.483Z,54.80
2023-02-15T20:28:49.026Z,54.50
2023-02-15T20:31:19.391Z,48.20
2023-02-15T20:33:49.675Z,51.00
2023-02-15T20:36:21.875Z,52.80
2023-02-15T20:38:50.996Z,54.40
2023-02-15T20:41:39.405Z,48.70
2023-02-15T20:44:18.991Z,49.50
2023-02-15T20:46:51.440Z,52.60
2023-02-15T20:49:20.956Z,53.80
2023-02-15T20:51:51.674Z,55.10
2023-02-15T20:54:22.799Z,61.00
2023-02-15T20:56:52.014Z,59.80
2023-02-15T20:59:26.381Z,64.90
2023-02-15T21:01:56.879Z,60.40
2023-02-15T21:04:32.981Z,60.00
2023-02-15T21:07:01.821Z,54.60
2023-02-15T21:09:31.597Z,56.50
2023-02-15T21:12:02.822Z,59.20
2023-02-15T21:14:31.927Z,64.50
2023-02-15T21:17:01.176Z,60.00
2023-02-15T21:19:30.704Z,58.80
2023-02-15T21:22:00.836Z,57.30
2023-02-15T21:24:29.633Z,54.70
2023-02-15T21:27:00.820Z,56.80
2023-02-15T21:29:29.355Z,54.90
2023-02-15T21:32:02.714Z,51.70
2023-02-15T21:34:30.825Z,55.70
2023-02-15T21:36:59.202Z,55.30
2023-02-15T21:39:28.399Z,55.00
2023-02-15T21:42:15.926Z,57.30
2023-02-15T21:45:04.268Z,52.10
2023-02-15T21:47:50.628Z,54.20
2023-02-15T21:50:39.445Z,55.30
2023-02-15T21:53:11.672Z,56.00
2023-02-15T21:55:40.600Z,58.70
2023-02-15T21:58:17.162Z,60.10
2023-02-15T22:00:48.664Z,59.70
2023-02-15T22:03:17.828Z,62.00
2023-02-15T22:05:46.488Z,64.30
2023-02-15T22:08:16.429Z,62.20
2023-02-15T22:10:45.801Z,61.80
2023-02-15T22:13:18.083Z,61.90
2023-02-15T22:15:48.869Z,59.10
2023-02-15T22:18:22.633Z,60.90
2023-02-15T22:20:52.133Z,64.60
2023-02-15T22:23:22.412Z,62.20
2023-02-15T22:25:54.915Z,59.60
2023-02-15T22:28:26.455Z,64.30
2023-02-15T22:30:54.426Z,64.50
2023-02-15T22:33:24.480Z,61.90
2023-02-15T22:35:52.739Z,59.50
2023-02-15T22:38:21.613Z,58.70
2023-02-15T22:40:51.003Z,66.20
2023-02-15T22:43:25.525Z,62.20
2023-02-15T22:45:55.410Z,64.40
2023-02-15T22:48:23.630Z,63.60
2023-02-15T22:50:51.710Z,64.10
2023-02-15T22:53:20.266Z,65.30
2023-02-15T22:55:48.522Z,66.00
2023-02-15T22:58:20.255Z,62.10
2023-02-15T23:00:49.607Z,59.40
2023-02-15T23:03:19.480Z,63.80
2023-02-15T23:05:47.806Z,62.60
2023-02-15T23:08:15.963Z,61.40
2023-02-15T23:10:45.159Z,63.10
2023-02-15T23:13:25.448Z,58.50
2023-02-15T23:15:55.737Z,63.30
2023-02-15T23:18:29.346Z,62.10
2023-02-15T23:20:58.940Z,62.10
2023-02-15T23:23:32.131Z,67.30
2023-02-15T23:26:02.554Z,59.20
2023-02-15T23:28:34.386Z,63.70
2023-02-15T23:31:02.917Z,62.50
2023-02-15T23:33:32.709Z,65.50
2023-02-15T23:36:00.999Z,62.40
2023-02-15T23:38:30.177Z,64.80
2023-02-15T23:41:20.677Z,63.50
2023-02-15T23:44:02.735Z,62.70
2023-02-15T23:46:41.389Z,68.30
2023-02-15T23:49:16.612Z,66.90
2023-02-15T23:51:46.442Z,64.90
2023-02-15T23:54:14.979Z,61.70
2023-02-15T23:56:43.333Z,62.90
2023-02-15T23:59:19.233Z,66.10
